createdAt,value
2023-02-01T00:00:31.675Z,25.38
2023-02-01T00:02:58.568Z,27.52
2023-02-01T00:05:25.300Z,16.45
2023-02-01T00:07:51.964Z,14.63
2023-02-01T00:10:18.911Z,14.23
2023-02-01T00:12:45.823Z,14.25
2023-02-01T00:15:12.803Z,12.20
2023-02-01T00:17:39.769Z,12.40
2023-02-01T00:20:07.031Z,13.30
2023-02-01T00:22:33.853Z,12.05
2023-02-01T00:25:00.585Z,12.13
2023-02-01T00:27:27.575Z,11.80
2023-02-01T00:29:56.579Z,11.95
2023-02-01T00:32:23.562Z,12.02
2023-02-01T00:34:50.513Z,12.13
2023-02-01T00:37:17.221Z,11.52
2023-02-01T00:39:43.995Z,12.55
2023-02-01T00:42:11.200Z,11.98
2023-02-01T00:44:38.005Z,11.77
2023-02-01T00:47:04.736Z,14.32
2023-02-01T00:49:31.596Z,12.10
2023-02-01T00:51:58.272Z,11.70
2023-02-01T00:54:25.554Z,12.43
2023-02-01T00:56:52.405Z,14.27
2023-02-01T00:59:19.065Z,14.38
2023-02-01T01:01:46.031Z,11.27
2023-02-01T01:04:12.926Z,13.35
2023-02-01T01:06:39.679Z,12.95
2023-02-01T01:09:08.812Z,11.18
2023-02-01T01:11:39.846Z,12.18
2023-02-01T01:14:08.262Z,11.30
2023-02-01T01:16:35.310Z,10.50
2023-02-01T01:19:03.215Z,10.30
2023-02-01T01:21:31.104Z,10.10
2023-02-01T01:23:58.568Z,9.77
2023-02-01T01:26:27.594Z,10.35
2023-02-01T01:28:56.761Z,10.07
2023-02-01T01:31:23.869Z,11.15
2023-02-01T01:33:55.978Z,9.77
2023-02-01T01:36:23.123Z,11.07
2023-02-01T01:38:50.694Z,12.48
2023-02-01T01:41:20.762Z,10.73
2023-02-01T01:43:59.618Z,10.30
2023-02-01T01:46:29.765Z,12.85
2023-02-01T01:49:06.734Z,14.35
2023-02-01T01:51:38.863Z,13.13
2023-02-01T01:54:14.048Z,11.80
2023-02-01T01:56:42.541Z,13.02
2023-02-01T01:59:10.354Z,14.20
2023-02-01T02:01:37.140Z,12.57
2023-02-01T02:04:04.618Z,14.23
2023-02-01T02:06:46.622Z,13.88
2023-02-01T02:09:13.496Z,16.10
2023-02-01T02:11:40.407Z,16.45
2023-02-01T02:14:11.252Z,13.73
2023-02-01T02:16:41.677Z,13.60
2023-02-01T02:19:23.347Z,12.85
2023-02-01T02:22:12.140Z,13.52
2023-02-01T02:25:15.302Z,12.98
2023-02-01T02:28:00.636Z,13.15
2023-02-01T02:31:29.042Z,12.75
2023-02-01T02:34:18.215Z,15.48
2023-02-01T02:36:50.816Z,13.80
2023-02-01T02:39:29.265Z,14.30
2023-02-01T02:42:29.562Z,13.77
2023-02-01T02:45:27.027Z,15.82
2023-02-01T02:48:15.169Z,13.88
2023-02-01T02:51:10.441Z,14.20
2023-02-01T02:54:03.943Z,14.43
2023-02-01T02:56:49.290Z,12.90
2023-02-01T02:59:39.743Z,12.23
2023-02-01T03:02:26.897Z,13.10
2023-02-01T03:04:57.689Z,13.02
2023-02-01T03:08:02.935Z,13.07
2023-02-01T03:10:35.528Z,14.48
2023-02-01T03:13:16.782Z,14.07
2023-02-01T03:16:03.456Z,13.50
2023-02-01T03:18:49.301Z,13.40
2023-02-01T03:21:33.314Z,13.40
2023-02-01T03:24:05.230Z,16.23
2023-02-01T03:26:39.356Z,14.00
2023-02-01T03:31:39.611Z,20.70
2023-02-01T03:34:06.697Z,12.63
2023-02-01T03:36:50.345Z,14.20
2023-02-01T03:39:36.007Z,14.10
2023-02-01T03:42:32.414Z,13.70
2023-02-01T03:45:04.267Z,16.77
2023-02-01T03:47:36.556Z,13.27
2023-02-01T03:50:10.722Z,14.05
2023-02-01T03:55:26.613Z,13.70
2023-02-01T03:57:59.758Z,13.35
2023-02-01T04:00:27.433Z,12.93
2023-02-01T04:02:54.590Z,12.95
2023-02-01T04:05:22.502Z,14.18
2023-02-01T04:07:49.727Z,22.45
2023-02-01T04:10:19.523Z,12.98
2023-02-01T04:12:46.487Z,13.40
2023-02-01T04:15:13.539Z,12.93
2023-02-01T04:17:40.370Z,12.85
2023-02-01T04:20:07.442Z,12.13
2023-02-01T04:22:34.124Z,12.40
2023-02-01T04:25:00.861Z,12.88
2023-02-01T04:27:27.786Z,11.63
2023-02-01T04:29:56.357Z,12.55
2023-02-01T04:32:24.454Z,15.90
2023-02-01T04:34:51.095Z,11.70
2023-02-01T04:37:17.827Z,11.27
2023-02-01T04:39:44.508Z,11.18
2023-02-01T04:42:11.121Z,11.48
2023-02-01T04:44:42.982Z,11.23
2023-02-01T04:47:10.568Z,11.20
2023-02-01T04:49:37.347Z,11.05
2023-02-01T04:52:04.907Z,10.80
2023-02-01T04:54:31.699Z,10.50
2023-02-01T04:56:58.305Z,10.40
2023-02-01T04:59:25.100Z,10.40
2023-02-01T05:01:51.951Z,10.15
2023-02-01T05:04:21.495Z,10.73
2023-02-01T05:06:48.335Z,10.75
2023-02-01T05:09:15.017Z,10.18
2023-02-01T05:12:00.503Z,15.10
2023-02-01T05:14:27.906Z,13.90
2023-02-01T05:16:54.562Z,13.68
2023-02-01T05:19:21.427Z,16.65
2023-02-01T05:21:48.311Z,13.40
2023-02-01T05:24:17.430Z,12.23
2023-02-01T05:26:44.450Z,11.07
2023-02-01T05:29:11.530Z,10.82
2023-02-01T05:31:38.392Z,10.52
2023-02-01T05:34:05.689Z,10.52
2023-02-01T05:36:32.950Z,23.92
2023-02-01T05:38:59.637Z,20.52
2023-02-01T05:41:26.451Z,21.13
2023-02-01T05:43:53.078Z,22.15
2023-02-01T05:46:19.783Z,20.58
2023-02-01T05:48:46.821Z,19.85
2023-02-01T05:51:13.769Z,18.77
2023-02-01T05:53:40.495Z,17.27
2023-02-01T05:56:08.022Z,18.20
2023-02-01T05:58:34.883Z,17.27
2023-02-01T06:01:02.145Z,14.57
2023-02-01T06:03:29.341Z,13.32
2023-02-01T06:05:56.294Z,12.30
2023-02-01T06:08:25.352Z,12.98
2023-02-01T06:10:53.296Z,13.27
2023-02-01T06:13:21.391Z,13.07
2023-02-01T06:15:48.175Z,13.05
2023-02-01T06:18:16.777Z,13.25
2023-02-01T06:20:44.073Z,12.63
2023-02-01T06:23:10.711Z,12.27
2023-02-01T06:25:38.929Z,11.55
2023-02-01T06:28:07.664Z,11.50
2023-02-01T06:30:34.335Z,12.32
2023-02-01T06:33:01.116Z,11.30
2023-02-01T06:35:27.851Z,12.95
2023-02-01T06:37:54.472Z,10.85
2023-02-01T06:40:21.860Z,12.73
2023-02-01T06:42:49.963Z,13.10
2023-02-01T06:45:17.850Z,12.27
2023-02-01T06:47:44.973Z,9.60
2023-02-01T06:50:11.774Z,11.20
2023-02-01T06:52:38.396Z,11.98
2023-02-01T06:55:05.531Z,11.25
2023-02-01T06:57:34.200Z,11.20
2023-02-01T07:00:00.978Z,10.60
2023-02-01T07:02:28.163Z,10.48
2023-02-01T07:04:54.767Z,9.02
2023-02-01T07:07:23.478Z,9.25
2023-02-01T07:09:51.281Z,9.02
2023-02-01T07:12:18.136Z,8.73
2023-02-01T07:14:44.705Z,9.07
2023-02-01T07:17:11.780Z,9.80
2023-02-01T07:19:38.769Z,9.68
2023-02-01T07:22:05.518Z,9.27
2023-02-01T07:24:32.483Z,10.05
2023-02-01T07:26:59.115Z,9.93
2023-02-01T07:29:25.763Z,9.65
2023-02-01T07:31:52.580Z,8.73
2023-02-01T07:34:19.755Z,8.98
2023-02-01T07:36:46.927Z,8.82
2023-02-01T07:39:13.665Z,9.23
2023-02-01T07:41:40.263Z,9.77
2023-02-01T07:44:06.920Z,8.65
2023-02-01T07:46:33.836Z,9.35
2023-02-01T07:49:00.587Z,15.63
2023-02-01T07:51:27.276Z,13.65
2023-02-01T07:53:56.267Z,14.00
2023-02-01T07:56:26.426Z,13.07
2023-02-01T07:59:01.215Z,13.88
2023-02-01T08:01:30.158Z,15.10
2023-02-01T08:04:02.621Z,13.95
2023-02-01T08:06:32.779Z,12.93
2023-02-01T08:08:59.673Z,13.20
2023-02-01T08:11:27.335Z,11.52
2023-02-01T08:13:55.446Z,11.73
2023-02-01T08:16:24.411Z,11.77
2023-02-01T08:18:52.133Z,13.43
2023-02-01T08:21:25.528Z,10.73
2023-02-01T08:23:53.016Z,13.55
2023-02-01T08:26:25.477Z,12.10
2023-02-01T08:29:01.095Z,11.30
2023-02-01T08:31:29.930Z,10.75
2023-02-01T08:33:59.471Z,10.93
2023-02-01T08:36:27.642Z,10.55
2023-02-01T08:38:55.063Z,11.40
2023-02-01T08:41:25.160Z,11.60
2023-02-01T08:43:52.797Z,10.90
2023-02-01T08:46:19.763Z,10.50
2023-02-01T08:48:48.144Z,11.07
2023-02-01T08:51:17.412Z,11.63
2023-02-01T08:53:44.655Z,10.23
2023-02-01T08:56:13.573Z,10.88
2023-02-01T08:58:40.591Z,10.95
2023-02-01T09:01:09.829Z,12.05
2023-02-01T09:03:37.035Z,11.32
2023-02-01T09:06:05.908Z,10.05
2023-02-01T09:08:33.385Z,11.38
2023-02-01T09:11:06.596Z,12.38
2023-02-01T09:13:36.670Z,11.13
2023-02-01T09:16:05.185Z,10.68
2023-02-01T09:18:31.953Z,9.65
2023-02-01T09:20:58.962Z,9.07
2023-02-01T09:23:26.126Z,9.60
2023-02-01T09:25:53.228Z,9.68
2023-02-01T09:28:21.139Z,10.10
2023-02-01T09:30:47.988Z,10.77
2023-02-01T09:33:14.801Z,9.10
2023-02-01T09:35:41.550Z,9.73
2023-02-01T09:38:08.191Z,8.70
2023-02-01T09:40:36.400Z,9.90
2023-02-01T09:43:12.736Z,9.38
2023-02-01T09:45:57.569Z,9.90
2023-02-01T09:48:33.411Z,9.45
2023-02-01T09:51:03.765Z,9.05
2023-02-01T09:53:41.592Z,9.75
2023-02-01T09:56:11.543Z,8.23
2023-02-01T09:58:42.125Z,8.02
2023-02-01T10:01:22.800Z,8.13
2023-02-01T10:03:50.256Z,5.88
2023-02-01T10:06:25.891Z,6.70
2023-02-01T10:09:14.761Z,6.63
2023-02-01T10:12:12.732Z,5.68
2023-02-01T10:14:57.478Z,6.00
2023-02-01T10:17:45.700Z,5.95
2023-02-01T10:20:40.927Z,7.18
2023-02-01T10:23:34.122Z,6.03
2023-02-01T10:26:28.369Z,6.28
2023-02-01T10:28:59.548Z,5.85
2023-02-01T10:31:30.415Z,6.00
2023-02-01T10:34:00.664Z,5.72
2023-02-01T10:36:31.440Z,6.20
2023-02-01T10:39:00.522Z,6.20
2023-02-01T10:41:34.298Z,6.20
2023-02-01T10:44:04.392Z,5.65
2023-02-01T10:46:32.293Z,6.43
2023-02-01T10:49:03.968Z,6.60
2023-02-01T10:52:02.206Z,7.43
2023-02-01T10:54:40.321Z,7.00
2023-02-01T10:57:20.296Z,6.32
2023-02-01T10:59:47.188Z,7.72
2023-02-01T11:02:33.670Z,8.77
2023-02-01T11:05:13.409Z,7.40
2023-02-01T11:07:47.092Z,7.68
2023-02-01T11:10:35.977Z,7.53
2023-02-01T11:13:06.820Z,8.43
2023-02-01T11:15:33.718Z,9.23
2023-02-01T11:18:17.073Z,8.95
2023-02-01T11:20:44.616Z,9.13
2023-02-01T11:23:21.176Z,8.27
2023-02-01T11:25:57.090Z,9.43
2023-02-01T11:28:27.601Z,8.52
2023-02-01T11:30:57.332Z,8.57
2023-02-01T11:33:31.107Z,8.30
2023-02-01T11:36:02.313Z,8.23
2023-02-01T11:38:32.154Z,10.43
2023-02-01T11:41:21.381Z,9.68
2023-02-01T11:43:54.081Z,10.02
2023-02-01T11:46:26.292Z,10.30
2023-02-01T11:48:55.213Z,9.48
2023-02-01T11:51:38.803Z,11.60
2023-02-01T11:54:08.942Z,9.40
2023-02-01T11:56:46.035Z,9.80
2023-02-01T11:59:56.396Z,7.55
2023-02-01T12:02:46.751Z,8.63
2023-02-01T12:05:22.688Z,8.35
2023-02-01T12:08:12.732Z,8.27
2023-02-01T12:10:53.741Z,8.73
2023-02-01T12:13:48.457Z,8.65
2023-02-01T12:19:38.585Z,7.30
2023-02-01T12:22:40.075Z,6.93
2023-02-01T12:25:39.873Z,8.50
2023-02-01T12:28:35.768Z,6.88
2023-02-01T12:31:25.264Z,6.88
2023-02-01T12:34:20.087Z,6.35
2023-02-01T12:39:33.016Z,7.38
2023-02-01T12:42:05.799Z,7.10
2023-02-01T12:44:40.702Z,6.20
2023-02-01T12:47:38.113Z,8.25
2023-02-01T12:50:13.588Z,7.30
2023-02-01T12:52:47.358Z,6.10
2023-02-01T12:55:43.083Z,6.20
2023-02-01T12:58:28.037Z,5.95
2023-02-01T13:01:10.033Z,5.93
2023-02-01T13:03:45.485Z,5.90
2023-02-01T13:06:16.269Z,6.28
2023-02-01T13:09:04.377Z,6.13
2023-02-01T13:11:52.232Z,6.00
2023-02-01T13:14:41.098Z,6.82
2023-02-01T13:17:29.534Z,6.45
2023-02-01T13:20:06.861Z,6.55
2023-02-01T13:22:47.172Z,6.88
2023-02-01T13:25:29.901Z,5.32
2023-02-01T13:28:03.527Z,6.15
2023-02-01T13:30:56.727Z,6.15
2023-02-01T13:33:53.885Z,6.22
2023-02-01T13:36:44.436Z,6.70
2023-02-01T13:39:23.589Z,6.25
2023-02-01T13:41:54.681Z,5.88
2023-02-01T13:44:33.363Z,6.60
2023-02-01T13:47:03.821Z,6.30
2023-02-01T13:49:38.716Z,7.05
2023-02-01T13:52:06.104Z,6.57
2023-02-01T13:54:37.383Z,7.65
2023-02-01T13:57:06.943Z,6.70
2023-02-01T13:59:38.087Z,6.78
2023-02-01T14:02:42.189Z,8.73
2023-02-01T14:05:11.077Z,7.15
2023-02-01T14:07:58.092Z,7.55
2023-02-01T14:10:50.245Z,6.72
2023-02-01T14:13:36.866Z,6.82
2023-02-01T14:16:03.689Z,6.40
2023-02-01T14:18:36.483Z,7.18
2023-02-01T14:21:25.384Z,7.88
2023-02-01T14:23:55.069Z,7.93
2023-02-01T14:26:27.652Z,9.10
2023-02-01T14:29:21.779Z,7.43
2023-02-01T14:32:07.272Z,7.13
2023-02-01T14:34:46.184Z,7.18
2023-02-01T14:37:18.996Z,7.07
2023-02-01T14:39:45.600Z,7.22
2023-02-01T14:42:23.580Z,7.32
2023-02-01T14:44:58.888Z,7.00
2023-02-01T14:47:28.549Z,7.57
2023-02-01T14:50:11.939Z,7.50
2023-02-01T14:53:13.946Z,7.43
2023-02-01T14:55:52.330Z,10.63
2023-02-01T14:58:40.558Z,17.02
2023-02-01T15:01:49.996Z,15.57
2023-02-01T15:04:23.135Z,11.05
2023-02-01T15:06:59.641Z,11.93
2023-02-01T15:09:36.449Z,9.00
2023-02-01T15:12:12.267Z,7.28
2023-02-01T15:14:43.774Z,7.85
2023-02-01T15:17:25.824Z,8.52
2023-02-01T15:20:09.031Z,9.13
2023-02-01T15:22:35.822Z,11.38
2023-02-01T15:25:04.233Z,13.38
2023-02-01T15:27:33.109Z,14.23
2023-02-01T15:30:16.970Z,13.27
2023-02-01T15:32:43.870Z,16.13
2023-02-01T15:35:56.177Z,18.60
2023-02-01T15:38:26.013Z,18.17
2023-02-01T15:41:11.085Z,16.73
2023-02-01T15:43:45.049Z,11.00
2023-02-01T15:46:17.959Z,13.50
2023-02-01T15:48:48.307Z,13.00
2023-02-01T15:51:24.032Z,11.90
2023-02-01T15:53:56.983Z,11.55
2023-02-01T15:56:29.845Z,12.95
2023-02-01T15:59:00.284Z,11.95
2023-02-01T16:01:27.107Z,11.30
2023-02-01T16:04:12.847Z,10.80
2023-02-01T16:06:56.940Z,10.48
2023-02-01T16:09:28.351Z,10.70
2023-02-01T16:12:00.416Z,10.55
2023-02-01T16:14:27.963Z,12.23
2023-02-01T16:17:00.539Z,13.50
2023-02-01T16:19:29.511Z,15.70
2023-02-01T16:21:56.893Z,15.43
2023-02-01T16:24:25.981Z,13.15
2023-02-01T16:26:53.316Z,12.45
2023-02-01T16:29:19.996Z,10.55
2023-02-01T16:31:46.690Z,9.52
2023-02-01T16:34:20.732Z,10.60
2023-02-01T16:36:57.933Z,10.30
2023-02-01T16:39:25.225Z,9.93
2023-02-01T16:41:51.942Z,11.82
2023-02-01T16:44:19.421Z,11.38
2023-02-01T16:46:49.589Z,12.70
2023-02-01T16:49:26.688Z,14.80
2023-02-01T16:51:58.957Z,16.95
2023-02-01T16:54:25.586Z,16.35
2023-02-01T16:56:52.363Z,16.48
2023-02-01T16:59:19.070Z,18.35
2023-02-01T17:01:45.683Z,14.02
2023-02-01T17:04:12.632Z,11.02
2023-02-01T17:06:40.057Z,10.25
2023-02-01T17:09:07.319Z,10.10
2023-02-01T17:11:34.169Z,9.30
2023-02-01T17:14:18.802Z,9.90
2023-02-01T17:16:47.961Z,14.95
2023-02-01T17:19:20.470Z,25.95
2023-02-01T17:21:50.473Z,27.90
2023-02-01T17:24:19.100Z,26.60
2023-02-01T17:26:46.256Z,22.88
2023-02-01T17:29:13.874Z,22.58
2023-02-01T17:31:44.178Z,20.65
2023-02-01T17:34:13.030Z,19.95
2023-02-01T17:36:42.907Z,14.05
2023-02-01T17:39:10.747Z,17.83
2023-02-01T17:41:37.902Z,9.10
2023-02-01T17:44:05.338Z,8.98
2023-02-01T17:46:33.059Z,9.43
2023-02-01T17:48:59.862Z,10.18
2023-02-01T17:51:28.421Z,9.98
2023-02-01T17:53:55.502Z,8.88
2023-02-01T17:56:24.374Z,8.00
2023-02-01T17:58:51.605Z,7.95
2023-02-01T18:01:23.836Z,7.57
2023-02-01T18:03:51.750Z,8.00
2023-02-01T18:06:23.948Z,8.50
2023-02-01T18:08:51.274Z,8.07
2023-02-01T18:11:24.194Z,10.95
2023-02-01T18:13:55.903Z,12.38
2023-02-01T18:16:22.548Z,10.77
2023-02-01T18:18:49.297Z,9.52
2023-02-01T18:21:17.703Z,10.68
2023-02-01T18:23:44.876Z,11.13
2023-02-01T18:26:14.051Z,11.30
2023-02-01T18:28:42.481Z,9.80
2023-02-01T18:31:31.116Z,9.95
2023-02-01T18:33:59.400Z,8.52
2023-02-01T18:36:27.582Z,7.25
2023-02-01T18:38:56.503Z,7.28
2023-02-01T18:41:24.204Z,7.47
2023-02-01T18:43:52.207Z,7.45
2023-02-01T18:46:19.928Z,7.03
2023-02-01T18:48:46.572Z,6.57
2023-02-01T18:51:18.773Z,7.18
2023-02-01T18:53:45.984Z,7.72
2023-02-01T18:56:14.407Z,7.43
2023-02-01T18:58:41.604Z,7.85
2023-02-01T19:01:16.159Z,7.22
2023-02-01T19:03:46.472Z,7.55
2023-02-01T19:06:20.957Z,7.68
2023-02-01T19:08:48.150Z,7.00
2023-02-01T19:11:14.778Z,6.95
2023-02-01T19:13:41.920Z,8.05
2023-02-01T19:16:10.835Z,7.93
2023-02-01T19:18:38.238Z,9.23
2023-02-01T19:21:11.191Z,10.20
2023-02-01T19:23:42.284Z,10.63
2023-02-01T19:26:14.190Z,13.70
2023-02-01T19:28:41.409Z,15.93
2023-02-01T19:31:09.583Z,21.25
2023-02-01T19:33:36.422Z,15.23
2023-02-01T19:36:06.054Z,15.80
2023-02-01T19:38:33.920Z,13.82
2023-02-01T19:41:00.950Z,14.30
2023-02-01T19:43:28.247Z,14.48
2023-02-01T19:45:55.998Z,14.18
2023-02-01T19:48:22.900Z,12.32
2023-02-01T19:50:50.003Z,14.23
2023-02-01T19:53:16.781Z,8.18
2023-02-01T19:55:48.935Z,8.15
2023-02-01T19:58:17.658Z,7.57
2023-02-01T20:00:44.841Z,7.40
2023-02-01T20:03:13.854Z,7.63
2023-02-01T20:05:40.781Z,7.13
2023-02-01T20:08:07.556Z,6.47
2023-02-01T20:10:34.413Z,7.53
2023-02-01T20:13:01.043Z,6.50
2023-02-01T20:15:28.406Z,6.93
2023-02-01T20:17:55.269Z,6.60
2023-02-01T20:20:23.312Z,8.55
2023-02-01T20:22:51.923Z,8.60
2023-02-01T20:25:18.997Z,6.82
2023-02-01T20:27:46.484Z,6.03
2023-02-01T20:30:19.836Z,7.10
2023-02-01T20:32:49.556Z,7.88
2023-02-01T20:35:16.805Z,7.05
2023-02-01T20:37:43.464Z,6.97
2023-02-01T20:40:11.891Z,7.03
2023-02-01T20:42:38.668Z,8.57
2023-02-01T20:45:05.752Z,7.03
2023-02-01T20:47:32.359Z,7.22
2023-02-01T20:49:59.285Z,7.35
2023-02-01T20:52:26.222Z,7.60
2023-02-01T20:54:53.213Z,6.35
2023-02-01T20:57:20.182Z,6.85
2023-02-01T20:59:49.265Z,6.35
2023-02-01T21:02:16.117Z,6.57
2023-02-01T21:04:42.813Z,5.82
2023-02-01T21:07:09.480Z,6.38
2023-02-01T21:09:36.115Z,7.10
2023-02-01T21:12:03.732Z,7.13
2023-02-01T21:14:30.395Z,5.65
2023-02-01T21:16:56.991Z,5.68
2023-02-01T21:19:28.832Z,5.07
2023-02-01T21:21:55.824Z,4.93
2023-02-01T21:24:22.534Z,5.38
2023-02-01T21:26:49.545Z,5.05
2023-02-01T21:29:16.479Z,4.90
2023-02-01T21:31:46.226Z,5.38
2023-02-01T21:34:13.303Z,5.65
2023-02-01T21:36:39.943Z,5.50
2023-02-01T21:39:08.547Z,5.25
2023-02-01T21:41:55.451Z,5.13
2023-02-01T21:44:23.462Z,5.53
2023-02-01T21:46:50.750Z,5.00
2023-02-01T21:49:17.475Z,6.53
2023-02-01T21:51:44.421Z,5.93
2023-02-01T21:54:12.060Z,5.40
2023-02-01T21:56:39.789Z,5.68
2023-02-01T21:59:07.604Z,5.40
2023-02-01T22:01:34.226Z,5.65
2023-02-01T22:04:00.844Z,5.18
2023-02-01T22:06:35.036Z,5.60
2023-02-01T22:09:02.147Z,5.63
2023-02-01T22:11:29.295Z,5.32
2023-02-01T22:13:56.270Z,4.60
2023-02-01T22:16:23.752Z,5.15
2023-02-01T22:18:52.316Z,5.53
2023-02-01T22:21:19.452Z,4.78
2023-02-01T22:23:51.524Z,5.03
2023-02-01T22:26:18.164Z,5.43
2023-02-01T22:28:45.103Z,4.70
2023-02-01T22:31:12.158Z,4.50
2023-02-01T22:33:39.082Z,4.78
2023-02-01T22:36:06.263Z,4.57
2023-02-01T22:38:34.538Z,4.57
2023-02-01T22:41:04.431Z,4.97
2023-02-01T22:43:32.498Z,5.18
2023-02-01T22:46:03.214Z,5.25
2023-02-01T22:48:31.187Z,5.38
2023-02-01T22:50:59.194Z,5.72
2023-02-01T22:53:26.659Z,4.95
2023-02-01T22:55:53.746Z,4.70
2023-02-01T22:58:20.488Z,4.60
2023-02-01T23:00:47.074Z,4.20
2023-02-01T23:03:13.716Z,4.43
2023-02-01T23:05:40.874Z,4.40
2023-02-01T23:08:07.609Z,4.35
2023-02-01T23:10:34.361Z,4.40
2023-02-01T23:13:01.061Z,4.25
2023-02-01T23:15:27.833Z,4.50
2023-02-01T23:17:54.551Z,4.05
2023-02-01T23:20:22.115Z,4.28
2023-02-01T23:22:49.870Z,4.63
2023-02-01T23:25:18.155Z,15.25
2023-02-01T23:27:45.051Z,13.40
2023-02-01T23:30:12.252Z,12.55
2023-02-01T23:32:38.917Z,12.02
2023-02-01T23:35:07.330Z,6.47
2023-02-01T23:37:34.355Z,7.65
2023-02-01T23:40:00.961Z,7.03
2023-02-01T23:42:27.835Z,4.75
2023-02-01T23:44:54.479Z,4.05
2023-02-01T23:47:21.083Z,6.18
2023-02-01T23:49:47.823Z,5.82
2023-02-01T23:52:14.481Z,5.50
2023-02-01T23:54:41.188Z,5.80
2023-02-01T23:57:08.172Z,6.20
2023-02-01T23:59:35.392Z,5.95
